Tiempo atmosférico en la estación meteorológica de Madrigal De La Vera, Cáceres (464 m.)



Fecha
DESCASC
Temp. máxima en grados centígrados (hora)
DESCASC
Temp. mínima en grados centígrados (hora)
DESCASC
Temp. media en grados centígrados
DESCASC
Racha de viento máxima en m/sg (hora)
DESCASC
Velocidad máxima media en intervalos de 10 minutos(hora)
DESCASC
Precipitaciones diarias en mm
DESCASC
Precipitaciones de 00:00 a 06:00 en mm
DESCASC
Precipitaciones de 06:00 a 12:00 en mm
DESCASC
Precipitaciones de 12:00 a 18:00 en mm
DESCASC
Precipitaciones de 18:00 a 24:00 en mm
DESCASC
04-03-2021 17.5 (14:00) 7.8 (06:50) 12.7 6.11 (11:20) 2.5 (14:30) 0 0 0 0 0
03-03-2021 18.5 (15:00) 8.1 (07:30) 13.3 5.28 (11:20) 2.22 (13:30) 0 0 0 0 0
02-03-2021 15.5 (16:40) 8.9 (05:40) 12.2 6.11 (14:40) 3.06 (13:30) 0.2 0 0.2 0 0
01-03-2021 12.2 (15:20) 7.3 (08:50) 9.8 9.72 (10:50) 3.61 (11:10) 0.6 0 0.6 0 0
28-02-2021 17.1 (16:30) 7.1 (00:00) 12.1 6.39 (11:10) 2.78 (11:00) 0 0 0 0 0
27-02-2021 20.3 (15:20) 8.3 (00:00) 14.3 3.89 (15:20) 1.94 (02:10) 0 0 0 0 0
26-02-2021 19.1 (15:50) 9.3 (00:00) 14.2 7.78 (02:50) 2.22 (12:10) 0 0 0 0 0
25-02-2021 14.9 (14:10) 8.2 (00:00) 11.5 3.89 (14:10) 2.22 (01:40) 0 0 0 0 0
24-02-2021 18 (15:50) 6.5 (00:00) 12.3 5.83 (13:20) 2.78 (12:40) 0 0 0 0 0
23-02-2021 16.8 (16:30) 4.1 (00:00) 10.4 5.28 (14:20) 2.5 (14:40) 0 0 0 0 0
22-02-2021 14.4 (16:30) 5.7 (00:00) 10 8.89 (01:10) 4.17 (03:10) 0 0 0 0 0
21-02-2021 13.7 (02:20) 6.6 (00:00) 10.1 7.78 (10:30) 3.89 (14:10) 18.4 0 2.2 14.6 1.6
20-02-2021 17.6 (15:40) 8.5 (00:00) 13.1 4.72 (11:40) 1.67 (11:40) 0 0 0 0 0
19-02-2021 19.4 (15:20) 7.4 (00:00) 13.4 5.28 (15:20) 2.22 (15:40) 0 0 0 0 0
18-02-2021 -- (--) -- (--) -- -- (--) -- (--) -- -- -- -- 0
17-02-2021 -- (--) -- (--) -- -- (--) -- (--) -- -- -- -- --
16-02-2021 -- (--) -- (--) -- -- (--) -- (--) -- -- -- -- --
15-02-2021 -- (--) -- (--) -- -- (--) -- (--) -- 0 0 -- --
14-02-2021 18.4 (15:30) 8.5 (00:00) 13.4 4.72 (20:20) 1.67 (22:20) 0 0 0 0 0
13-02-2021 16.2 (15:50) 5.2 (00:00) 10.7 3.33 (13:10) 1.67 (00:20) 0 0 0 0 0
12-02-2021 17.2 (15:50) 8.4 (00:00) 12.8 7.5 (18:00) 3.61 (17:20) 12.8 12.8 0 0 0
11-02-2021 13.1 (15:10) 8.6 (00:00) 10.9 5.28 (13:20) 2.22 (13:50) 3 0 1.2 1.4 0.4
10-02-2021 16.1 (15:40) 6.1 (00:00) 11.1 9.72 (04:50) 3.89 (14:20) 11.2 11.2 0 0 0
09-02-2021 10.3 (16:00) 6.9 (00:00) 8.6 9.17 (14:20) 3.33 (13:40) 69 9.2 36.2 19.2 4.4
08-02-2021 13.2 (14:50) 6.6 (00:00) 9.9 10.83 (13:20) 5.28 (14:00) 27.2 27 0.2 0 0
07-02-2021 10 (14:20) 5.5 (00:00) 7.8 6.39 (16:50) 2.5 (17:40) 4 0.2 0 0.2 3.6
06-02-2021 11.4 (17:20) 7.5 (00:00) 9.4 3.61 (05:50) 1.67 (12:00) 26 15.2 7.8 2.4 0.6
05-02-2021 13.9 (14:40) 8.8 (00:00) 11.3 7.5 (20:30) 3.33 (19:40) 9.2 2 0.2 0 7
04-02-2021 11.3 (15:20) 9.2 (00:00) 10.3 3.61 (11:00) 1.11 (18:40) 6.4 1 1.2 2.6 1.6

Gráficas

Temp. máximas Temp. mínimas Temp. medias Precipitaciones Rachas de viento máximas Velocidades máximas media en intervalos de 10 minutos

Datos horarios

Fecha y hora oficial Temperatura (ºC) Velocidad del viento (km/h) Dirección del viento Racha (km/h) Dirección de racha Precipitación (mm) Presión (hPa) Tendencia (hPa) Humedad (%)
2021-03-05 23:00:00 11.9 6 Norte 11 Norte 0 -- -- 65
2021-03-05 22:00:00 11.8 5 Noroeste 13 Noroeste 0 -- -- 66
2021-03-05 21:00:00 11.8 4 Noroeste 12 Norte 0 -- -- 67
2021-03-05 20:00:00 12.1 0 Calma 6 Noroeste 0 -- -- 68
2021-03-05 19:00:00 13.1 0 Calma 9 Este 0 -- -- 67
2021-03-05 18:00:00 15.5 3 Este 13 Este 0 -- -- 58
2021-03-05 17:00:00 16.5 7 Este 19 Este 0 -- -- 55
2021-03-05 16:00:00 17.4 5 Sudeste 15 Este 0 -- -- 52
2021-03-05 15:00:00 17.1 8 Este 22 Este 0 -- -- 51
2021-03-05 14:00:00 17.1 7 Este 19 Este 0 -- -- 50
2021-03-05 13:00:00 16.2 5 Este 23 Este 0 -- -- 56
2021-03-05 12:00:00 15.3 9 Este 30 Este 0 -- -- 57
2021-03-05 11:00:00 14.6 10 Este 28 Este 0 -- -- 59
2021-03-05 10:00:00 11 4 Sur 10 Sur 0 -- -- 69
2021-03-05 09:00:00 10.1 4 Sur 10 Sudoeste 0 -- -- 74
2021-03-05 08:00:00 10.2 4 Oeste 10 Sudoeste 0 -- -- 69
2021-03-05 07:00:00 9.9 4 Norte 13 Nordeste 0 -- -- 68
2021-03-05 06:00:00 10.5 4 Norte 13 Norte 0 -- -- 67
2021-03-05 05:00:00 10.7 4 Nordeste 14 Norte 0 -- -- 68
2021-03-05 04:00:00 11.3 2 Nordeste 16 Este 0 -- -- 67
2021-03-05 03:00:00 11.9 4 Este 17 Este 0 -- -- 65
2021-03-05 02:00:00 11.2 3 Sudeste 10 Sudoeste 0 -- -- 68
2021-03-05 01:00:00 11.8 4 Este 15 Este 0 -- -- 65
2021-03-05 00:00:00 11.8 2 Sur 15 Este 0 -- -- 63
2021-03-04 23:00:00 12.5 3 Este 10 Nordeste 0 -- -- 59
2021-03-04 22:00:00 12.7 4 Noroeste 12 Noroeste 0 -- -- 56
2021-03-04 21:00:00 12.4 3 Norte 9 Norte 0 -- -- 60
2021-03-04 20:00:00 12.4 4 Noroeste 8 Oeste 0 -- -- 67
2021-03-04 19:00:00 13.3 2 Sudoeste 8 Este 0 -- -- 69
2021-03-04 18:00:00 14.8 6 Nordeste 11 Nordeste 0 -- -- 59
2021-03-04 17:00:00 15.4 2 Norte 14 Este 0 -- -- 57
2021-03-04 16:00:00 16.8 5 Este 21 Este 0 -- -- 52
2021-03-04 15:00:00 17.5 7 Este 20 Este 0 -- -- 51
2021-03-04 14:00:00 17.5 6 Este 19 Este 0 -- -- 51
2021-03-04 13:00:00 16.3 8 Este 21 Este 0 -- -- 59
2021-03-04 12:00:00 15.4 6 Este 22 Este 0 -- -- 63
2021-03-04 11:00:00 13.6 6 Este 16 Este 0 -- -- 69
2021-03-04 10:00:00 11.2 4 Sur 13 Sur 0 -- -- 76
2021-03-04 09:00:00 9.4 3 Sur 8 Sudoeste 0 -- -- 84
2021-03-04 08:00:00 9.7 0 Calma 16 Este 0 -- -- 78
2021-03-04 07:00:00 8.4 4 Norte 12 Oeste 0 -- -- 84
2021-03-04 06:00:00 8.6 4 Noroeste 8 Noroeste 0 -- -- 84
2021-03-04 05:00:00 8.7 0 Calma 3 Sudoeste 0 -- -- 85
2021-03-04 04:00:00 8.9 2 Sur 6 Sudoeste 0 -- -- 84
2021-03-04 03:00:00 9.6 0 Calma 11 Sur 0 -- -- 81
2021-03-04 02:00:00 11.4 4 Norte 10 Norte 0 -- -- 74
2021-03-04 01:00:00 11 4 Noroeste 7 Sudoeste 0 -- -- 81
2021-03-04 00:00:00 11 5 Sudoeste 8 Sudoeste 0 -- -- 82
2021-03-03 23:00:00 12 3 Noroeste 10 Norte 0 -- -- 78
2021-03-03 22:00:00 11.7 4 Noroeste 7 Noroeste 0 -- -- 81
2021-03-03 21:00:00 11.9 3 Noroeste 4 Noroeste 0 -- -- 81
2021-03-03 20:00:00 12.1 2 Noroeste 4 Norte 0 -- -- 81
2021-03-03 19:00:00 13.8 0 Calma 9 Sudeste 0 -- -- 76
2021-03-03 18:00:00 16.1 3 Este 11 Este 0 -- -- 66
2021-03-03 17:00:00 17.4 4 Este 15 Este 0 -- -- 61
2021-03-03 16:00:00 18 4 Este 18 Sudeste 0 -- -- 62
2021-03-03 15:00:00 18.5 5 Sudeste 18 Este 0 -- -- 59
2021-03-03 14:00:00 17.9 4 Sudeste 17 Este 0 -- -- 57
2021-03-03 13:00:00 17.1 8 Este 18 Este 0 -- -- 58
2021-03-03 12:00:00 15.7 7 Este 19 Este 0 -- -- 65
2021-03-03 11:00:00 13.4 5 Sudeste 12 Este 0 -- -- 73
2021-03-03 10:00:00 11.3 0 Calma 6 Nordeste 0 -- -- 74
2021-03-03 09:00:00 9.3 0 Calma 6 Oeste 0 -- -- 84
2021-03-03 08:00:00 8.3 4 Noroeste 7 Oeste 0 -- -- 82
2021-03-03 07:00:00 8.4 0 Calma 6 Noroeste 0 -- -- 82
2021-03-03 06:00:00 9.1 4 Noroeste 6 Noroeste 0 -- -- 78
2021-03-03 05:00:00 9 3 Oeste 7 Sudoeste 0 -- -- 80
2021-03-03 04:00:00 9.2 4 Oeste 7 Oeste 0 -- -- 79
2021-03-03 03:00:00 9.5 4 Noroeste 8 Noroeste 0 -- -- 78
2021-03-03 02:00:00 9.1 2 Norte 6 Norte 0 -- -- 81
2021-03-03 01:00:00 10.2 3 Noroeste 8 Noroeste 0 -- -- 75
2021-03-03 00:00:00 10.1 3 Noroeste 5 Noroeste 0 -- -- 77
2021-03-02 23:00:00 10.5 2 Nordeste 9 Oeste 0 -- -- 76
2021-03-02 22:00:00 10.7 0 Calma 8 Noroeste 0 -- -- 74
2021-03-02 21:00:00 11.8 4 Norte 9 Noroeste 0 -- -- 70
2021-03-02 20:00:00 12.3 4 Noroeste 10 Oeste 0 -- -- 70
2021-03-02 19:00:00 12.8 0 Calma 11 Este 0 -- -- 71
2021-03-02 18:00:00 14.3 0 Calma 8 Sur 0 -- -- 67
2021-03-02 17:00:00 15.2 0 Calma 12 Norte 0 -- -- 64
2021-03-02 16:00:00 14.9 5 Norte 19 Este 0 -- -- 63
2021-03-02 15:00:00 15.1 7 Este 22 Este 0 -- -- 63
2021-03-02 14:00:00 14.1 7 Este 21 Este 0 -- -- 67
2021-03-02 13:00:00 13.4 5 Este 15 Este 0 -- -- 71
2021-03-02 12:00:00 12.7 5 Sudoeste 13 Sudoeste 0 -- -- 73
2021-03-02 11:00:00 10.4 3 Norte 8 Oeste 0 -- -- 86
2021-03-02 10:00:00 9.5 3 Oeste 6 Sudoeste 0.2 -- -- 89
2021-03-02 09:00:00 9.6 2 Oeste 10 Sudoeste 0 -- -- 85
2021-03-02 08:00:00 9.4 2 Oeste 6 Sudoeste 0 -- -- 86
2021-03-02 07:00:00 9.3 0 Calma 6 Sur 0 -- -- 86
2021-03-02 06:00:00 9.1 0 Calma 4 Sudoeste 0 -- -- 87
2021-03-02 05:00:00 9 0 Calma 9 Sudeste 0 -- -- 87
2021-03-02 04:00:00 9.4 2 Sudoeste 8 Sur 0 -- -- 85
2021-03-02 03:00:00 9.7 3 Sur 11 Sudeste 0 -- -- 82
2021-03-02 02:00:00 10.3 2 Este 18 Este 0 -- -- 79
2021-03-02 01:00:00 10.4 4 Sur 11 Sur 0 -- -- 81
2021-03-02 00:00:00 10.8 3 Este 11 Este 0 -- -- 78
2021-03-01 23:00:00 11.2 0 Calma 12 Este 0 -- -- 78
2021-03-01 22:00:00 11.5 3 Este 14 Nordeste 0 -- -- 77
2021-03-01 21:00:00 11.1 0 Calma 6 Noroeste 0 -- -- 79
2021-03-01 20:00:00 11.1 0 Calma 9 Norte 0 -- -- 77
2021-03-01 19:00:00 11.4 3 Noroeste 11 Noroeste 0 -- -- 75
2021-03-01 18:00:00 11.7 0 Calma 6 Sudoeste 0 -- -- 78
2021-03-01 17:00:00 11.6 0 Calma 12 Este 0 -- -- 78
2021-03-01 16:00:00 11.7 2 Este 14 Este 0 -- -- 73
2021-03-01 15:00:00 11.8 6 Este 22 Nordeste 0 -- -- 74
2021-03-01 14:00:00 11.5 7 Este 25 Este 0 -- -- 73
2021-03-01 13:00:00 11.7 10 Este 28 Este 0 -- -- 72
2021-03-01 12:00:00 11.3 0 Calma 26 Este 0 -- -- 72
2021-03-01 11:00:00 10.6 11 Este 35 Este 0 -- -- 75
2021-03-01 10:00:00 9.6 5 Este 13 Este 0 -- -- 83
2021-03-01 09:00:00 7.4 3 Noroeste 6 Norte 0 -- -- 91
2021-03-01 08:00:00 7.9 3 Este 13 Sudeste 0 -- -- 86
2021-03-01 07:00:00 8.2 0 Calma 7 Sur 0.6 -- -- 90
2021-03-01 06:00:00 9.3 2 Sur 18 Este 0 -- -- 77
2021-03-01 05:00:00 9.7 6 Este 14 Sudeste 0 -- -- 73
2021-03-01 04:00:00 10 6 Este 15 Este 0 -- -- 73
2021-03-01 03:00:00 10.3 4 Este 19 Este 0 -- -- 72
2021-03-01 02:00:00 10.6 4 Sudeste 12 Este 0 -- -- 74
2021-03-01 01:00:00 11.3 3 Este 15 Este 0 -- -- 69
2021-03-01 00:00:00 12 4 Sudeste 10 Sudeste 0 -- -- 63
2021-02-28 23:00:00 12.2 2 Noroeste 14 Este 0 -- -- 63
2021-02-28 22:00:00 12.1 7 Este 16 Este 0 -- -- 64
2021-02-28 21:00:00 11.8 4 Noroeste 12 Norte 0 -- -- 61
2021-02-28 20:00:00 12 4 Noroeste 13 Norte 0 -- -- 61
2021-02-28 19:00:00 12.3 0 Calma 6 Este 0 -- -- 63
2021-02-28 18:00:00 14.4 4 Este 11 Este 0 -- -- 57
2021-02-28 17:00:00 16.4 4 Sudeste 14 Este 0 -- -- 51
2021-02-28 16:00:00 16.8 5 Este 17 Este 0 -- -- 49
2021-02-28 15:00:00 16.4 5 Este 21 Este 0 -- -- 51
2021-02-28 14:00:00 16.2 5 Este 17 Este 0 -- -- 52
2021-02-28 13:00:00 15.4 5 Este 22 Este 0 -- -- 53
2021-02-28 12:00:00 14 6 Este 23 Este 0 -- -- 58
2021-02-28 11:00:00 13 10 Este 18 Este 0 -- -- 60
2021-02-28 10:00:00 10 3 Sudeste 10 Este 0 -- -- 67
2021-02-28 09:00:00 8.6 4 Este 13 Este 0 -- -- 69
2021-02-28 08:00:00 7.5 2 Sudoeste 6 Sudoeste 0 -- -- 75
2021-02-28 07:00:00 7.3 2 Sudoeste 6 Sudoeste 0 -- -- 76
2021-02-28 06:00:00 7.3 3 Sudoeste 7 Oeste 0 -- -- 76
2021-02-28 05:00:00 8.9 0 Calma 9 Noroeste 0 -- -- 67
2021-02-28 04:00:00 11.8 4 Noroeste 10 Norte 0 -- -- 53
2021-02-28 03:00:00 12.1 4 Norte 12 Norte 0 -- -- 50
2021-02-28 02:00:00 12 4 Norte 10 Norte 0 -- -- 51
2021-02-28 01:00:00 12.5 3 Noroeste 6 Noroeste 0 -- -- 49
2021-02-28 00:00:00 13.2 4 Noroeste 8 Norte 0 -- -- 47
2021-02-27 23:00:00 13.3 5 Noroeste 8 Noroeste 0 -- -- 48
2021-02-27 22:00:00 13.5 3 Noroeste 13 Noroeste 0 -- -- 48
2021-02-27 21:00:00 13.7 6 Norte 12 Norte 0 -- -- 48
2021-02-27 20:00:00 14.1 4 Noroeste 6 Noroeste 0 -- -- 47
2021-02-27 19:00:00 14.2 2 Sudoeste 6 Sudoeste 0 -- -- 51
2021-02-27 18:00:00 17.6 3 Sur 12 Este 0 -- -- 50
2021-02-27 17:00:00 19.9 3 Sudeste 10 Sur 0 -- -- 41
2021-02-27 16:00:00 20.2 3 Sudeste 14 Sur 0 -- -- 42
2021-02-27 15:00:00 20 4 Sudeste 14 Sur 0 -- -- 46
2021-02-27 14:00:00 18.9 3 Sudeste 12 Sudeste 0 -- -- 48
2021-02-27 13:00:00 17.8 4 Este 11 Este 0 -- -- 49
2021-02-27 12:00:00 15.2 4 Sur 9 Sur 0 -- -- 54
2021-02-27 11:00:00 13.1 3 Sudeste 8 Sur 0 -- -- 65
2021-02-27 10:00:00 10.7 0 Calma 5 Norte 0 -- -- 68
2021-02-27 09:00:00 8.8 0 Calma 9 Noroeste 0 -- -- 75
2021-02-27 08:00:00 8.5 3 Noroeste 5 Noroeste 0 -- -- 72
2021-02-27 07:00:00 9.3 2 Noroeste 5 Sudoeste 0 -- -- 69
2021-02-27 06:00:00 9.4 3 Oeste 8 Noroeste 0 -- -- 67
2021-02-27 05:00:00 9.1 0 Calma 4 Sudoeste 0 -- -- 71
2021-02-27 04:00:00 10.6 3 Sudoeste 6 Sudoeste 0 -- -- 65
2021-02-27 03:00:00 11.2 0 Calma 10 Oeste 0 -- -- 63
2021-02-27 02:00:00 10.6 6 Oeste 10 Noroeste 0 -- -- 67
2021-02-27 01:00:00 12.2 3 Norte 10 Noroeste 0 -- -- 62
2021-02-27 00:00:00 13 4 Noroeste 11 Noroeste 0 -- -- 61
2021-02-26 23:00:00 12.4 4 Noroeste 9 Oeste 0 -- -- 68
2021-02-26 22:00:00 12.4 4 Noroeste 9 Noroeste 0 -- -- 69
2021-02-26 21:00:00 12.4 3 Norte 8 Noroeste 0 -- -- 72
2021-02-26 20:00:00 12.8 5 Noroeste 7 Oeste 0 -- -- 71
2021-02-26 19:00:00 13.8 2 Sudoeste 9 Sur 0 -- -- 70
2021-02-26 18:00:00 16.7 2 Sudeste 10 Sudeste 0 -- -- 60
2021-02-26 17:00:00 18 3 Sudeste 14 Sudeste 0 -- -- 56
2021-02-26 16:00:00 19 6 Este 18 Este 0 -- -- 49
2021-02-26 15:00:00 18.4 6 Este 17 Este 0 -- -- 52
2021-02-26 14:00:00 17.5 4 Este 16 Este 0 -- -- 57
2021-02-26 13:00:00 15.9 4 Este 19 Este 0 -- -- 67
2021-02-26 12:00:00 14.5 8 Este 16 Nordeste 0 -- -- 64
2021-02-26 11:00:00 13.5 5 Este 11 Sudeste 0 -- -- 70
2021-02-26 10:00:00 11.5 4 Sudoeste 8 Sudoeste 0 -- -- 75
2021-02-26 09:00:00 9.4 0 Calma 11 Este 0 -- -- 84
2021-02-26 08:00:00 9.5 0 Calma 18 Este 0 -- -- 81
2021-02-26 07:00:00 9.8 3 Sudeste 11 Nordeste 0 -- -- 80
2021-02-26 06:00:00 10.8 3 Este 17 Este 0 -- -- 77
2021-02-26 05:00:00 11.7 7 Este 21 Este 0 -- -- 74
2021-02-26 04:00:00 12 3 Este 18 Este 0 -- -- 71
2021-02-26 03:00:00 12.3 6 Este 28 Este 0 -- -- 69
2021-02-26 02:00:00 12.7 3 Noroeste 21 Sudeste 0 -- -- 68
2021-02-26 01:00:00 13.3 4 Sudeste 14 Este 0 -- -- 66
2021-02-26 00:00:00 13.3 4 Sudeste 11 Sur 0 -- -- 65
2021-02-25 23:00:00 12.6 2 Noroeste 10 Norte 0 -- -- 67
2021-02-25 22:00:00 11.9 5 Noroeste 14 Norte 0 -- -- 68
2021-02-25 21:00:00 11.1 5 Noroeste 9 Noroeste 0 -- -- 74
2021-02-25 20:00:00 11.2 3 Noroeste 10 Noroeste 0 -- -- 74
2021-02-25 19:00:00 12.2 0 Calma 8 Norte 0 -- -- 74
2021-02-25 18:00:00 13.7 0 Calma 8 Nordeste 0 -- -- 70
2021-02-25 17:00:00 14.1 2 Nordeste 12 Este 0 -- -- 66
2021-02-25 16:00:00 14.8 4 Este 13 Este 0 -- -- 63
2021-02-25 15:00:00 14.2 3 Sudeste 14 Norte 0 -- -- 65
2021-02-25 14:00:00 14.4 5 Este 13 Este 0 -- -- 65
2021-02-25 13:00:00 13.5 3 Sudeste 11 Sudeste 0 -- -- 66
2021-02-25 12:00:00 12.1 3 Sur 6 Sur 0 -- -- 72
2021-02-25 11:00:00 10.9 2 Sudoeste 6 Sur 0 -- -- 77
2021-02-25 10:00:00 10.1 4 Sudoeste 8 Sudoeste 0 -- -- 77
2021-02-25 09:00:00 9.4 5 Sudoeste 10 Sudoeste 0 -- -- 79
2021-02-25 08:00:00 8.4 2 Sudoeste 6 Sudoeste 0 -- -- 85
2021-02-25 07:00:00 8.3 3 Sudoeste 10 Sudoeste 0 -- -- 83
2021-02-25 06:00:00 9 5 Sudoeste 13 Sudoeste 0 -- -- 80
2021-02-25 05:00:00 8.8 4 Sudoeste 12 Sudoeste 0 -- -- 80
2021-02-25 04:00:00 9.2 6 Sudoeste 10 Sudoeste 0 -- -- 79
2021-02-25 03:00:00 10.2 6 Sudoeste 10 Sur 0 -- -- 73
2021-02-25 02:00:00 10.8 6 Sudoeste 13 Sudoeste 0 -- -- 72
2021-02-25 01:00:00 10.9 4 Sudoeste 9 Sudoeste 0 -- -- 72
2021-02-25 00:00:00 11.5 0 Calma 12 Este 0 -- -- 70
2021-02-24 23:00:00 11.9 2 Este 10 Este 0 -- -- 70
2021-02-24 22:00:00 13.3 5 Este 12 Este 0 -- -- 66
2021-02-24 21:00:00 13.4 2 Sudeste 9 Sur 0 -- -- 64
2021-02-24 20:00:00 13.3 4 Oeste 8 Oeste 0 -- -- 60
2021-02-24 19:00:00 13.7 3 Noroeste 5 Noroeste 0 -- -- 64
2021-02-24 18:00:00 15.6 3 Este 12 Este 0 -- -- 58
2021-02-24 17:00:00 17.2 5 Este 17 Este 0 -- -- 51
2021-02-24 16:00:00 17.8 8 Este 19 Este 0 -- -- 51
2021-02-24 15:00:00 17.4 7 Este 17 Este 0 -- -- 53
2021-02-24 14:00:00 16.5 9 Este 21 Este 0 -- -- 54
2021-02-24 13:00:00 15.7 7 Este 21 Este 0 -- -- 58
2021-02-24 12:00:00 14.2 7 Este 21 Este 0 -- -- 62
2021-02-24 11:00:00 13.2 6 Este 16 Este 0 -- -- 65
2021-02-24 10:00:00 9.7 0 Calma 12 Sur 0 -- -- 73
2021-02-24 09:00:00 8.1 0 Calma 7 Sudoeste 0 -- -- 78
2021-02-24 08:00:00 6.7 3 Norte 10 Noroeste 0 -- -- 78
2021-02-24 07:00:00 7 7 Noroeste 13 Noroeste 0 -- -- 78
2021-02-24 06:00:00 6.6 0 Calma 8 Sudoeste 0 -- -- 80
2021-02-24 05:00:00 8 3 Sudoeste 8 Norte 0 -- -- 74
2021-02-24 04:00:00 8.3 5 Norte 11 Norte 0 -- -- 71
2021-02-24 03:00:00 9.4 0 Calma 8 Sudoeste 0 -- -- 68
2021-02-24 02:00:00 9.7 4 Noroeste 9 Noroeste 0 -- -- 66
2021-02-24 01:00:00 10.3 4 Nordeste 13 Norte 0 -- -- 65
2021-02-24 00:00:00 10.4 3 Norte 12 Nordeste 0 -- -- 65
2021-02-23 23:00:00 10.5 4 Norte 12 Norte 0 -- -- 64
2021-02-23 22:00:00 10.7 5 Nordeste 15 Este 0 -- -- 62
2021-02-23 21:00:00 11.3 3 Norte 14 Norte 0 -- -- 56
2021-02-23 20:00:00 10.9 4 Norte 10 Noroeste 0 -- -- 58
2021-02-23 19:00:00 11.4 2 Noroeste 7 Este 0 -- -- 58
2021-02-23 18:00:00 14.3 2 Sudeste 15 Este 0 -- -- 48
2021-02-23 17:00:00 16.5 3 Este 15 Nordeste 0 -- -- 43
2021-02-23 16:00:00 16.4 7 Este 18 Este 0 -- -- 45
2021-02-23 15:00:00 16.4 5 Este 19 Este 0 -- -- 47
2021-02-23 14:00:00 16 8 Este 18 Este 0 -- -- 46
2021-02-23 13:00:00 15.3 6 Este 18 Este 0 -- -- 54
2021-02-23 12:00:00 12.1 5 Este 15 Este 0 -- -- 62
2021-02-23 11:00:00 10.1 3 Este 8 Este 0 -- -- 56
2021-02-23 10:00:00 8.1 2 Este 7 Nordeste 0 -- -- 62
2021-02-23 09:00:00 6.9 2 Noroeste 10 Noroeste 0 -- -- 57
2021-02-23 08:00:00 4.3 3 Oeste 7 Noroeste 0 -- -- 62
2021-02-23 07:00:00 4.9 3 Noroeste 9 Norte 0 -- -- 62
2021-02-23 06:00:00 4.4 3 Norte 8 Norte 0 -- -- 65
2021-02-23 05:00:00 5.7 0 Calma 8 Norte 0 -- -- 65
2021-02-23 04:00:00 5.1 3 Noroeste 5 Noroeste 0 -- -- 66
2021-02-23 03:00:00 6.2 4 Noroeste 8 Noroeste 0 -- -- 57
2021-02-23 02:00:00 6.7 3 Norte 6 Noroeste 0 -- -- 51
2021-02-23 01:00:00 6.7 4 Noroeste 11 Norte 0 -- -- 54
2021-02-23 00:00:00 6.6 4 Norte 12 Norte 0 -- -- 59
2021-02-22 23:00:00 6.9 3 Noroeste 13 Norte 0 -- -- 63
2021-02-22 22:00:00 7.3 4 Norte 9 Noroeste 0 -- -- 67
2021-02-22 21:00:00 7.8 3 Norte 7 Norte 0 -- -- 68
2021-02-22 20:00:00 8.4 2 Noroeste 5 Noroeste 0 -- -- 68
2021-02-22 19:00:00 9.7 0 Calma 13 Sudoeste 0 -- -- 65
2021-02-22 18:00:00 12 6 Sudoeste 16 Sur 0 -- -- 55
2021-02-22 17:00:00 13.8 8 Sur 18 Sur 0 -- -- 49
2021-02-22 16:00:00 13.9 5 Sur 17 Sur 0 -- -- 49
2021-02-22 15:00:00 13.9 7 Sur 15 Sudeste 0 -- -- 50
2021-02-22 14:00:00 12.7 6 Sur 14 Sudeste 0 -- -- 53
2021-02-22 13:00:00 11.7 4 Este 11 Este 0 -- -- 61
2021-02-22 12:00:00 9.4 2 Sudeste 11 Este 0 -- -- 71
2021-02-22 11:00:00 8.3 6 Este 11 Este 0 -- -- 74
2021-02-22 10:00:00 6.5 2 Sudeste 22 Norte 0 -- -- 83
2021-02-22 09:00:00 6.7 6 Norte 28 Norte 0 -- -- 59
2021-02-22 08:00:00 6.2 7 Norte 23 Nordeste 0 -- -- 62
2021-02-22 07:00:00 6.6 3 Noroeste 23 Norte 0 -- -- 63
2021-02-22 06:00:00 7.2 10 Norte 29 Norte 0 -- -- 60
2021-02-22 05:00:00 7.7 12 Norte 32 Norte 0 -- -- 62
2021-02-22 04:00:00 8 10 Norte 30 Norte 0 -- -- 64
2021-02-22 03:00:00 8.3 10 Norte 32 Norte 0 -- -- 64
2021-02-22 02:00:00 8.6 10 Norte 32 Norte 0 -- -- 64
2021-02-22 01:00:00 8.6 12 Norte 32 Norte 0 -- -- 62
2021-02-22 00:00:00 7.6 4 Sur 12 Sudoeste 0 -- -- 73
2021-02-21 23:00:00 7.2 2 Noroeste 10 Nordeste 0 -- -- 85
2021-02-21 22:00:00 7.1 8 Sudoeste 16 Sudoeste 0 -- -- 90
2021-02-21 21:00:00 7.5 3 Sudoeste 19 Sudoeste 0.2 -- -- 96
2021-02-21 20:00:00 7.5 5 Sudoeste 12 Sudoeste 0.2 -- -- 97
2021-02-21 19:00:00 7.5 0 Calma 9 Sudoeste 1.2 -- -- 95
2021-02-21 18:00:00 7.8 3 Sudoeste 16 Sudoeste 2 -- -- 96
2021-02-21 17:00:00 8.3 7 Sudoeste 15 Sur 1.6 -- -- 96
2021-02-21 16:00:00 9 0 Calma 10 Sudoeste 3.4 -- -- 95
2021-02-21 15:00:00 8.9 3 Oeste 27 Sudoeste 4.4 -- -- 95
2021-02-21 14:00:00 9.6 8 Sur 27 Sur 1.2 -- -- 92
2021-02-21 13:00:00 9.5 2 Norte 14 Sur 2 -- -- 92
2021-02-21 12:00:00 9.9 4 Sudeste 18 Este 1.8 -- -- 89
2021-02-21 11:00:00 10.5 5 Este 28 Este 0.4 -- -- 80
2021-02-21 10:00:00 11.4 9 Este 25 Este 0 -- -- 70
2021-02-21 09:00:00 11.4 3 Sudeste 16 Sudeste 0 -- -- 69
2021-02-21 08:00:00 12.1 4 Sudeste 19 Este 0 -- -- 61
2021-02-21 07:00:00 12.3 5 Sudeste 21 Este 0 -- -- 59
2021-02-21 06:00:00 12.6 6 Sudeste 19 Este 0 -- -- 59
2021-02-21 05:00:00 11.8 6 Sudeste 18 Este 0 -- -- 59
2021-02-21 04:00:00 13.3 5 Este 14 Sudeste 0 -- -- 49
2021-02-21 03:00:00 13.4 3 Este 12 Este 0 -- -- 50
2021-02-21 02:00:00 13.5 5 Este 16 Este 0 -- -- 53
2021-02-21 01:00:00 13.2 3 Este 12 Nordeste 0 -- -- 50
2021-02-21 00:00:00 13.3 3 Nordeste 9 Nordeste 0 -- -- 51
2021-02-20 23:00:00 13.5 2 Este 10 Este 0 -- -- 51
2021-02-20 22:00:00 13.1 2 Norte 8 Este 0 -- -- 45
2021-02-20 21:00:00 13.2 2 Nordeste 8 Nordeste 0 -- -- 42
2021-02-20 20:00:00 13.1 3 Noroeste 5 Noroeste 0 -- -- 44
2021-02-20 19:00:00 13.4 0 Calma 4 Noroeste 0 -- -- 43
2021-02-20 18:00:00 13.9 0 Calma -- -- 0 -- -- 52
2021-02-20 17:00:00 16.1 0 Calma 11 Sudeste 0 -- -- 49
2021-02-20 16:00:00 17.3 3 Sudeste 9 Sur 0 -- -- 45
2021-02-20 15:00:00 16.9 2 Sudeste 12 Este 0 -- -- 42
2021-02-20 14:00:00 16.9 3 Sudeste 14 Este 0 -- -- 46
2021-02-20 13:00:00 15.5 4 Nordeste 12 Este 0 -- -- 46
2021-02-20 12:00:00 15.5 4 Este 17 Este 0 -- -- 55
2021-02-20 11:00:00 14.3 5 Este 15 Este 0 -- -- 55
2021-02-20 10:00:00 12.4 2 Este 7 Sudeste 0 -- -- 63
2021-02-20 09:00:00 10.7 2 Norte 6 Noroeste 0 -- -- 71
2021-02-20 08:00:00 9.5 2 Norte 8 Norte 0 -- -- 71
2021-02-20 07:00:00 9.2 4 Noroeste 9 Norte 0 -- -- 70
2021-02-20 06:00:00 8.7 0 Calma 6 Este 0 -- -- 72
2021-02-20 05:00:00 9 0 Calma 6 Noroeste 0 -- -- 72
2021-02-20 04:00:00 11.1 4 Noroeste 14 Norte 0 -- -- 61
2021-02-20 03:00:00 10 4 Noroeste 9 Noroeste 0 -- -- 68
2021-02-20 02:00:00 9.7 2 Noroeste 4 Norte 0 -- -- 70
2021-02-20 01:00:00 9.8 0 Calma 6 Noroeste 0 -- -- 71
2021-02-20 00:00:00 10.8 4 Noroeste 5 Noroeste 0 -- -- 61
2021-02-19 23:00:00 11.8 2 Oeste 4 Sudoeste 0 -- -- 59
2021-02-19 22:00:00 11.9 2 Oeste 8 Sudoeste 0 -- -- 56
2021-02-19 21:00:00 12.6 4 Noroeste 9 Norte 0 -- -- 43
2021-02-19 20:00:00 12.5 2 Oeste 10 Oeste 0 -- -- 48
2021-02-19 19:00:00 13.9 2 Oeste 7 Oeste 0 -- -- 55
2021-02-19 18:00:00 16.3 3 Oeste 15 Sur 0 -- -- 50
2021-02-19 17:00:00 17.8 6 Sudoeste 14 Sudoeste 0 -- -- 40
2021-02-19 16:00:00 18.6 4 Sur 19 Sur 0 -- -- 44
2021-02-19 15:00:00 19.1 5 Sur 13 Sur 0 -- -- 37
2021-02-19 14:00:00 18.3 5 Este 13 Este 0 -- -- 47
2021-02-19 13:00:00 16.3 5 Sudeste 11 Este 0 -- -- 58
2021-02-19 12:00:00 13.6 4 Este 12 Este 0 -- -- 64
2021-02-19 11:00:00 12.4 3 Sudeste 9 Este 0 -- -- 68
2021-02-19 10:00:00 11 2 Nordeste 5 Este 0 -- -- 71
2021-02-19 09:00:00 8.6 4 Noroeste 5 Noroeste 0 -- -- 79
2021-02-19 08:00:00 7.4 0 Calma 5 Noroeste 0 -- -- 83
2021-02-19 07:00:00 7.9 0 Calma 5 Noroeste 0 -- -- 82
2021-02-19 06:00:00 7.5 0 Calma 5 Norte 0 -- -- 84
2021-02-19 05:00:00 8.6 0 Calma 3 Nordeste 0 -- -- 80
2021-02-19 04:00:00 8.1 0 Calma 8 Sudoeste 0 -- -- 80
2021-02-19 03:00:00 8.8 2 Sudoeste 5 Noroeste 0 -- -- 77
2021-02-19 02:00:00 9.5 3 Norte 4 Norte 0 -- -- 74
2021-02-19 01:00:00 10.3 3 Noroeste 9 Noroeste 0 -- -- 70
2021-02-19 00:00:00 10.8 0 Calma 8 Oeste 0 -- -- 68
2021-02-18 23:00:00 10.9 2 Sudoeste 5 Norte 0 -- -- 70
2021-02-18 22:00:00 11.4 4 Noroeste 6 Oeste 0 -- -- 64
2021-02-18 21:00:00 11.6 3 Noroeste 4 Noroeste 0 -- -- 65
2021-02-18 20:00:00 12.2 3 Noroeste 5 Noroeste 0 -- -- 66
2021-02-18 19:00:00 13.2 2 Oeste 9 Sudoeste 0 -- -- 64
2021-02-18 18:00:00 14.8 2 Sudoeste 12 Oeste 0 -- -- 58
2021-02-18 17:00:00 15.6 4 Sudoeste 22 Sudoeste 0 -- -- 55
2021-02-18 16:00:00 15.8 9 Sudoeste 21 Sudoeste 0 -- -- 57
2021-02-18 15:00:00 16.2 8 Sudoeste 21 Sur 0 -- -- 58
2021-02-18 14:00:00 15.9 8 Sur -- -- -- -- -- 68
2021-02-18 13:00:00 -- -- -- -- -- -- -- -- --
2021-02-18 12:00:00 -- -- -- -- -- -- -- -- --
2021-02-18 11:00:00 -- -- -- -- -- -- -- -- --
2021-02-18 10:00:00 -- -- -- -- -- -- -- -- --
2021-02-18 09:00:00 -- -- -- -- -- -- -- -- --
2021-02-18 08:00:00 -- -- -- -- -- -- -- -- --
2021-02-18 07:00:00 -- -- -- -- -- -- -- -- --
2021-02-18 06:00:00 -- -- -- -- -- -- -- -- --
2021-02-18 05:00:00 -- -- -- -- -- -- -- -- --
2021-02-18 04:00:00 -- -- -- -- -- -- -- -- --
2021-02-18 03:00:00 -- -- -- -- -- -- -- -- --
2021-02-18 02:00:00 -- -- -- -- -- -- -- -- --
2021-02-18 01:00:00 -- -- -- -- -- -- -- -- --
2021-02-18 00:00:00 -- -- -- -- -- -- -- -- --
2021-02-17 23:00:00 -- -- -- -- -- -- -- -- --
2021-02-17 22:00:00 -- -- -- -- -- -- -- -- --
2021-02-17 21:00:00 -- -- -- -- -- -- -- -- --
2021-02-17 20:00:00 -- -- -- -- -- -- -- -- --
2021-02-17 19:00:00 -- -- -- -- -- -- -- -- --
2021-02-17 18:00:00 -- -- -- -- -- -- -- -- --
2021-02-17 17:00:00 -- -- -- -- -- -- -- -- --
2021-02-17 16:00:00 -- -- -- -- -- -- -- -- --
2021-02-17 15:00:00 -- -- -- -- -- -- -- -- --
2021-02-17 14:00:00 -- -- -- -- -- -- -- -- --
2021-02-17 13:00:00 -- -- -- -- -- -- -- -- --
2021-02-17 12:00:00 -- -- -- -- -- -- -- -- --
2021-02-17 11:00:00 -- -- -- -- -- -- -- -- --
2021-02-17 10:00:00 -- -- -- -- -- -- -- -- --
2021-02-17 09:00:00 -- -- -- -- -- -- -- -- --
2021-02-17 08:00:00 -- -- -- -- -- -- -- -- --
2021-02-17 07:00:00 -- -- -- -- -- -- -- -- --
2021-02-17 06:00:00 -- -- -- -- -- -- -- -- --
2021-02-17 05:00:00 -- -- -- -- -- -- -- -- --
2021-02-17 04:00:00 -- -- -- -- -- -- -- -- --
2021-02-17 03:00:00 -- -- -- -- -- -- -- -- --
2021-02-17 02:00:00 -- -- -- -- -- -- -- -- --
2021-02-17 01:00:00 -- -- -- -- -- -- -- -- --
2021-02-17 00:00:00 -- -- -- -- -- -- -- -- --
2021-02-16 23:00:00 -- -- -- -- -- -- -- -- --
2021-02-16 22:00:00 -- -- -- -- -- -- -- -- --
2021-02-16 21:00:00 -- -- -- -- -- -- -- -- --
2021-02-16 20:00:00 -- -- -- -- -- -- -- -- --
2021-02-16 19:00:00 -- -- -- -- -- -- -- -- --
2021-02-16 18:00:00 -- -- -- -- -- -- -- -- --
2021-02-16 17:00:00 -- -- -- -- -- -- -- -- --
2021-02-16 16:00:00 -- -- -- -- -- -- -- -- --
2021-02-16 15:00:00 -- -- -- -- -- -- -- -- --
2021-02-16 14:00:00 -- -- -- -- -- -- -- -- --
2021-02-16 13:00:00 -- -- -- -- -- -- -- -- --
2021-02-16 12:00:00 -- -- -- -- -- -- -- -- --
2021-02-16 11:00:00 -- -- -- -- -- -- -- -- --
2021-02-16 10:00:00 -- -- -- -- -- -- -- -- --
2021-02-16 09:00:00 -- -- -- -- -- -- -- -- --
2021-02-16 08:00:00 -- -- -- -- -- -- -- -- --
2021-02-16 07:00:00 -- -- -- -- -- -- -- -- --
2021-02-16 06:00:00 -- -- -- -- -- -- -- -- --
2021-02-16 05:00:00 -- -- -- -- -- -- -- -- --
2021-02-16 04:00:00 -- -- -- -- -- -- -- -- --
2021-02-16 03:00:00 -- -- -- -- -- -- -- -- --
2021-02-16 02:00:00 -- -- -- -- -- -- -- -- --
2021-02-16 01:00:00 -- -- -- -- -- -- -- -- --
2021-02-16 00:00:00 -- -- -- -- -- -- -- -- --
2021-02-15 23:00:00 -- -- -- -- -- -- -- -- --
2021-02-15 22:00:00 -- -- -- -- -- -- -- -- --
2021-02-15 21:00:00 -- -- -- -- -- -- -- -- --
2021-02-15 20:00:00 -- -- -- -- -- -- -- -- --
2021-02-15 19:00:00 -- -- -- -- -- -- -- -- --
2021-02-15 18:00:00 -- -- -- -- -- -- -- -- --
2021-02-15 17:00:00 -- -- -- -- -- -- -- -- --
2021-02-15 16:00:00 -- -- -- -- -- -- -- -- --
2021-02-15 15:00:00 -- -- -- -- -- -- -- -- --
2021-02-15 14:00:00 16.7 8 Este 24 Este 0 -- -- 57
2021-02-15 13:00:00 15.6 6 Sudeste 18 Este 0 -- -- 63
2021-02-15 12:00:00 13.3 6 Este 15 Este 0 -- -- 67
2021-02-15 11:00:00 11.8 5 Este 12 Este 0 -- -- 76
2021-02-15 10:00:00 9.8 0 Calma 5 Sudeste 0 -- -- 78
2021-02-15 09:00:00 7.2 0 Calma 6 Oeste 0 -- -- 92
2021-02-15 08:00:00 6.8 3 Noroeste 6 Sudoeste 0 -- -- 91
2021-02-15 07:00:00 6.6 5 Sudoeste 9 Sudoeste 0 -- -- 91
2021-02-15 06:00:00 7 3 Sudoeste 9 Sudoeste 0 -- -- 90
2021-02-15 05:00:00 6.9 3 Sudoeste 8 Sudoeste 0 -- -- 89
2021-02-15 04:00:00 7.9 0 Calma 15 Sur 0 -- -- 83
2021-02-15 03:00:00 10 5 Noroeste 11 Noroeste 0 -- -- 74
2021-02-15 02:00:00 9.9 4 Sudoeste 10 Sur 0 -- -- 77
2021-02-15 01:00:00 12.3 5 Noroeste 10 Noroeste 0 -- -- 65
2021-02-15 00:00:00 11.8 4 Noroeste 6 Norte 0 -- -- 70
2021-02-14 23:00:00 12.1 3 Noroeste 14 Norte 0 -- -- 68
2021-02-14 22:00:00 12.6 3 Norte -- -- -- -- -- 67
2021-02-14 21:00:00 12.7 3 Oeste 17 Nordeste 0 -- -- 67
2021-02-14 20:00:00 13.1 3 Nordeste 9 Este 0 -- -- 66
2021-02-14 19:00:00 13.7 0 Calma 8 Este 0 -- -- 66
2021-02-14 18:00:00 15.9 3 Este 12 Sudeste 0 -- -- 61
2021-02-14 17:00:00 18 4 Este 13 Este 0 -- -- 52
2021-02-14 16:00:00 18.3 5 Este 12 Este 0 -- -- 53
2021-02-14 15:00:00 17.8 3 Este 12 Sudeste 0 -- -- 58
2021-02-14 14:00:00 17.5 4 Sudeste 10 Sur 0 -- -- 60
2021-02-14 13:00:00 16 4 Este 14 Este 0 -- -- 61
2021-02-14 12:00:00 12.8 3 Sudeste 9 Este 0 -- -- 72
2021-02-14 11:00:00 11 3 Sudeste 8 Nordeste 0 -- -- 77
2021-02-14 10:00:00 9.5 2 Sudeste 6 Sudeste 0 -- -- 80
2021-02-14 09:00:00 9.2 0 Calma 4 Noroeste 0 -- -- 79
2021-02-14 08:00:00 9.1 3 Oeste 5 Oeste 0 -- -- 77
2021-02-14 07:00:00 9.4 4 Noroeste 7 Noroeste 0 -- -- 73
2021-02-14 06:00:00 9.4 4 Norte 8 Noroeste 0 -- -- 73
2021-02-14 05:00:00 9.5 0 Calma 7 Oeste 0 -- -- 79
2021-02-14 04:00:00 9.3 2 Oeste 5 Noroeste 0 -- -- 79
2021-02-14 03:00:00 9.7 4 Noroeste 6 Noroeste 0 -- -- 76
2021-02-14 02:00:00 8.7 0 Calma 7 Norte 0 -- -- 83
2021-02-14 01:00:00 9.3 0 Calma 6 Noroeste 0 -- -- 80
2021-02-14 00:00:00 10.3 5 Noroeste 8 Norte 0 -- -- 79
2021-02-13 23:00:00 11.2 3 Noroeste 6 Norte 0 -- -- 75
2021-02-13 22:00:00 11.1 4 Noroeste 8 Norte 0 -- -- 79
2021-02-13 21:00:00 10.5 2 Noroeste 7 Oeste 0 -- -- 86
2021-02-13 20:00:00 11.3 5 Noroeste 8 Noroeste 0 -- -- 83
2021-02-13 19:00:00 11.6 0 Calma 4 Sudoeste 0 -- -- 84
2021-02-13 18:00:00 13.7 0 Calma 7 Sudeste 0 -- -- 77
2021-02-13 17:00:00 16 2 Este 10 Este 0 -- -- 65
2021-02-13 16:00:00 16.2 4 Sudeste 10 Sur 0 -- -- 63
2021-02-13 15:00:00 15.1 3 Sudeste 11 Este 0 -- -- 66
2021-02-13 14:00:00 14.4 3 Sudeste 12 Sur 0 -- -- 68
2021-02-13 13:00:00 13.2 3 Sudeste 11 Este 0 -- -- 70
2021-02-13 08:00:00 5.2 3 Noroeste 8 Norte 0 -- -- 93
2021-02-13 07:00:00 6.4 4 Sudoeste 9 Sudoeste 0 -- -- 91
2021-02-13 06:00:00 6.8 2 Sudoeste 3 Noroeste 0 -- -- 92
2021-02-13 05:00:00 6.6 0 Calma 4 Norte 0 -- -- 88
2021-02-13 04:00:00 7.2 0 Calma 6 Norte 0 -- -- 83
2021-02-13 03:00:00 7.4 3 Norte 6 Norte 0 -- -- 82
2021-02-13 02:00:00 7.3 2 Sudoeste 9 Norte 0 -- -- 84
2021-02-13 01:00:00 8.6 3 Norte 12 Norte 0 -- -- 75
2021-02-13 00:00:00 8.9 4 Noroeste 8 Norte 0 -- -- 78
2021-02-12 23:00:00 8.6 0 Calma 3 Sudoeste 0 -- -- 82
2021-02-12 22:00:00 9.5 0 Calma 10 Norte 0 -- -- 72
2021-02-12 21:00:00 11.8 5 Noroeste 18 Norte 0 -- -- 58
2021-02-12 20:00:00 11.1 2 Sudoeste 12 Nordeste 0 -- -- 64
2021-02-12 19:00:00 12.4 0 Calma 24 Noroeste 0 -- -- 64
2021-02-12 18:00:00 14.7 10 Noroeste 27 Noroeste 0 -- -- 46
2021-02-12 17:00:00 16.1 8 Norte 18 Norte 0 -- -- 47
2021-02-12 16:00:00 16.8 5 Nordeste 20 Noroeste 0 -- -- 48
2021-02-12 15:00:00 16.5 7 Norte 19 Norte 0 -- -- 53
2021-02-12 14:00:00 15.1 4 Norte 19 Sur 0 -- -- 51
2021-02-12 13:00:00 14.8 8 Sudoeste 19 Sur 0 -- -- 62
2021-02-12 12:00:00 13 4 Sudoeste 20 Sudoeste 0 -- -- 79
2021-02-12 11:00:00 12.9 8 Sudoeste 23 Sudoeste 0 -- -- 80
2021-02-12 10:00:00 12 9 Sudoeste 19 Sudoeste 0 -- -- 67
2021-02-12 09:00:00 9 4 Noroeste 21 Sudoeste 0 -- -- 97
2021-02-12 08:00:00 8.5 5 Oeste 16 Sudoeste 0 -- -- 97
2021-02-12 07:00:00 9.1 3 Oeste 18 Sudoeste 0 -- -- 95
2021-02-12 06:00:00 10.5 3 Sudoeste 22 Sudoeste 0 -- -- 97
2021-02-12 05:00:00 11.5 4 Sudoeste 22 Sudoeste 2.8 -- -- 99
2021-02-12 04:00:00 11.6 5 Sur 18 Sur 3.6 -- -- 99
2021-02-12 03:00:00 11.7 5 Sur 18 Sudoeste 5.6 -- -- 99
2021-02-12 02:00:00 11.8 0 Calma 15 Sur 0.4 -- -- 99
2021-02-12 01:00:00 11.9 0 Calma 4 Oeste 0.4 -- -- 99
2021-02-12 00:00:00 11.9 0 Calma -- -- 0 -- -- 98
2021-02-11 23:00:00 12 0 Calma 4 Este 0 -- -- 98
2021-02-11 22:00:00 12 0 Calma 4 Sur 0 -- -- 98
2021-02-11 21:00:00 12.1 0 Calma 4 Sudoeste 0 -- -- 98
2021-02-11 20:00:00 12.3 0 Calma 9 Sudoeste 0.4 -- -- 97
2021-02-11 19:00:00 12.6 0 Calma 4 Oeste 0 -- -- 97
2021-02-11 18:00:00 13 0 Calma 10 Sudoeste 0.4 -- -- 96
2021-02-11 17:00:00 12.8 0 Calma 7 Sudoeste 0.4 -- -- 96
2021-02-11 16:00:00 13 0 Calma 7 Sur 0 -- -- 95
2021-02-11 15:00:00 13 3 Sudoeste 14 Sudoeste 0.2 -- -- 95
2021-02-11 14:00:00 13 6 Sudoeste 19 Sudoeste 0.2 -- -- 96
2021-02-11 13:00:00 12.4 8 Sur 15 Sudoeste 0.2 -- -- 97
2021-02-11 12:00:00 12 2 Este 8 Sudoeste 0 -- -- 98
2021-02-11 11:00:00 11.3 0 Calma 5 Sudoeste 0 -- -- 98
2021-02-11 10:00:00 10.5 0 Calma 7 Nordeste 0.2 -- -- 98
2021-02-11 09:00:00 9.8 3 Norte 8 Norte 0.4 -- -- 98
2021-02-11 08:00:00 9.4 0 Calma 4 Norte 0.4 -- -- 97
2021-02-11 07:00:00 9.2 0 Calma 5 Norte 0.2 -- -- 96
2021-02-11 06:00:00 8.9 0 Calma 4 Noroeste 0 -- -- 95
2021-02-11 05:00:00 9.2 0 Calma 5 Sudoeste 0 -- -- 91
2021-02-11 04:00:00 9.2 2 Este 6 Norte 0 -- -- 90
2021-02-11 03:00:00 9.1 2 Noroeste 5 Norte 0 -- -- 88
2021-02-11 02:00:00 9 2 Norte 8 Norte 0 -- -- 88
2021-02-11 01:00:00 8.7 2 Norte 5 Norte 0 -- -- 89
2021-02-11 00:00:00 8.6 0 Calma 6 Norte 0 -- -- 88
2021-02-10 23:00:00 9.7 2 Norte 7 Norte 0 -- -- 83
2021-02-10 22:00:00 10 0 Calma -- -- 0 -- -- 81
2021-02-10 21:00:00 9.7 0 Calma -- -- 0 -- -- 81
2021-02-10 20:00:00 10.3 0 Calma 6 Sudoeste 0 -- -- 79
2021-02-10 19:00:00 11.3 2 Sudoeste 19 Sudoeste 0 -- -- 75
2021-02-10 18:00:00 12.9 4 Sudoeste 25 Sudoeste 0 -- -- 68
2021-02-10 17:00:00 14.6 10 Sudoeste 25 Sudoeste 0 -- -- 61
2021-02-10 16:00:00 15.4 10 Sudoeste 22 Sudoeste 0 -- -- 58
2021-02-10 15:00:00 15.3 8 Sudoeste 27 Sur 0 -- -- 49
2021-02-10 14:00:00 14.9 10 Sudoeste 19 Sudoeste 0 -- -- 61
2021-02-10 13:00:00 14.6 3 Sudeste 12 Sur 0 -- -- 65
2021-02-10 12:00:00 12 6 Este 19 Nordeste 0 -- -- 82
2021-02-10 11:00:00 11 8 Sudoeste 19 Sudoeste 0 -- -- 78
2021-02-10 10:00:00 8.8 8 Oeste 21 Sudoeste 0 -- -- 86
2021-02-10 09:00:00 6.4 4 Sudoeste 11 Sur 0 -- -- 97
2021-02-10 08:00:00 7.5 4 Sudoeste 16 Sudoeste 0 -- -- 92
2021-02-10 07:00:00 7.8 6 Oeste 20 Sudoeste 0 -- -- 96
2021-02-10 06:00:00 8.4 5 Oeste 28 Sudoeste 0.4 -- -- 97
2021-02-10 05:00:00 8.5 10 Sudoeste 35 Sudoeste 2 -- -- 97
2021-02-10 04:00:00 8.2 7 Sudoeste 30 Sudoeste 5 -- -- 97
2021-02-10 03:00:00 8.2 7 Sudoeste 30 Sudoeste 0.4 -- -- 96
2021-02-10 02:00:00 8 5 Sur 19 Sur 1.8 -- -- 97
2021-02-10 01:00:00 8 6 Sudoeste 23 Sur 1.6 -- -- 97
2021-02-10 00:00:00 8.2 5 Sudoeste 21 Sur 0 -- -- 94
2021-02-09 23:00:00 8.3 6 Sudoeste 33 Sudoeste 0.2 -- -- 94
2021-02-09 22:00:00 8.4 7 Sudoeste 26 Sudoeste 0 -- -- 91
2021-02-09 21:00:00 8.3 7 Sudoeste 24 Sur 0 -- -- 93
2021-02-09 20:00:00 9.1 6 Sudoeste 19 Sudoeste 3.8 -- -- 96
2021-02-09 19:00:00 9.5 4 Oeste 17 Sudoeste 0.4 -- -- 93
2021-02-09 18:00:00 9.8 7 Sudoeste 26 Sudoeste 0.2 -- -- 92
2021-02-09 17:00:00 9.9 8 Sudoeste 32 Oeste 0 -- -- 93
2021-02-09 16:00:00 10.3 12 Sudoeste 30 Sur 0.2 -- -- 93
2021-02-09 15:00:00 9.3 6 Sudoeste 33 Oeste 1 -- -- 96
2021-02-09 14:00:00 9.6 11 Sudoeste 32 Sur 6.2 -- -- 98
2021-02-09 13:00:00 9.2 4 Sudoeste 15 Sudoeste 11.6 -- -- 99
2021-02-09 12:00:00 8.8 4 Sur 16 Sudoeste 10.2 -- -- 99
2021-02-09 11:00:00 8.5 5 Sur 23 Sudoeste 8.2 -- -- 99
2021-02-09 10:00:00 8.4 7 Sudoeste 25 Sudoeste 6.6 -- -- 99
2021-02-09 09:00:00 8.4 5 Sur 17 Sudoeste 6 -- -- 99
2021-02-09 08:00:00 8.3 6 Sur 24 Sur 2.8 -- -- 99
2021-02-09 07:00:00 7.8 2 Sudeste 9 Sur 2.4 -- -- 99
2021-02-09 06:00:00 7.4 0 Calma 6 Este 3.4 -- -- 98
2021-02-09 05:00:00 7.2 0 Calma 8 Sudoeste 1.4 -- -- 97
2021-02-09 04:00:00 6.9 2 Norte 6 Norte 2.4 -- -- 96
2021-02-09 03:00:00 7.2 0 Calma 5 Oeste 2 -- -- 94
2021-02-09 02:00:00 7.4 0 Calma 17 Sudoeste 0 -- -- 89
2021-02-09 01:00:00 7.5 8 Sudoeste 21 Sudoeste 0 -- -- 86
2021-02-09 00:00:00 7.4 2 Noroeste 15 Noroeste 0 -- -- 86
2021-02-08 23:00:00 7.4 3 Sudoeste 25 Sudoeste 0 -- -- 82
2021-02-08 22:00:00 8.1 7 Sudoeste 22 Sudoeste 0 -- -- 80
2021-02-08 21:00:00 9.4 7 Oeste 33 Sudoeste 0 -- -- 74
2021-02-08 20:00:00 8.8 4 Sur 24 Sur 0 -- -- 80
2021-02-08 19:00:00 9.2 5 Sudoeste 21 Sudoeste 0 -- -- 80
2021-02-08 18:00:00 9.7 5 Sudoeste 37 Sudoeste 0 -- -- 81
2021-02-08 17:00:00 11.4 8 Sudoeste 33 Sudoeste 0 -- -- 74
2021-02-08 16:00:00 12 10 Sudoeste 32 Sudoeste 0 -- -- 65
2021-02-08 15:00:00 13 12 Sudoeste 38 Oeste 0 -- -- 64
2021-02-08 14:00:00 11.5 19 Sudoeste 39 Sudoeste 0 -- -- 71
2021-02-08 13:00:00 10.8 12 Sudoeste 30 Sur 0 -- -- 82
2021-02-08 12:00:00 9.8 10 Sudoeste 31 Sudoeste 0.2 -- -- 87
2021-02-08 11:00:00 8 5 Sudoeste 20 Sur 0 -- -- 96
2021-02-08 10:00:00 8.2 10 Sudoeste 27 Sudoeste 0 -- -- 95
2021-02-08 09:00:00 7.2 11 Sudoeste 24 Sudoeste 0 -- -- 99
2021-02-08 08:00:00 7 0 Calma 6 Oeste 0 -- -- 99
2021-02-08 07:00:00 6.8 0 Calma 4 Norte 0 -- -- 99
2021-02-08 06:00:00 6.7 2 Oeste 6 Sudeste 0 -- -- 99
2021-02-08 05:00:00 6.7 2 Este 8 Nordeste 5 -- -- 99
2021-02-08 04:00:00 6.8 3 Nordeste 6 Este 5.2 -- -- 98
2021-02-08 03:00:00 6.8 2 Nordeste 11 Norte 5.4 -- -- 96
2021-02-08 02:00:00 6.8 3 Oeste 9 Norte 6 -- -- 98
2021-02-08 01:00:00 6.8 2 Noroeste 5 Noroeste 5.4 -- -- 98
2021-02-08 00:00:00 6.6 0 Calma 8 Norte 3.2 -- -- 98
2021-02-07 23:00:00 6.3 0 Calma 6 Noroeste 0.4 -- -- 97
2021-02-07 22:00:00 6.2 0 Calma 5 Sudoeste 0 -- -- 96
2021-02-07 21:00:00 6.1 0 Calma 7 Nordeste 0 -- -- 96
2021-02-07 20:00:00 6.2 0 Calma 16 Sudoeste 0 -- -- 93
2021-02-07 19:00:00 6.6 5 Sudoeste 15 Sudoeste 0 -- -- 94
2021-02-07 18:00:00 7.3 7 Sudoeste 22 Sudoeste 0.2 -- -- 92
2021-02-07 17:00:00 8.7 8 Sudoeste 23 Oeste 0 -- -- 84
2021-02-07 16:00:00 9.9 2 Norte 5 Este 0 -- -- 82
2021-02-07 15:00:00 9.4 0 Calma 9 Sur 0 -- -- 87
2021-02-07 14:00:00 9.6 3 Este 9 Sur 0 -- -- 86
2021-02-07 13:00:00 8.5 0 Calma 9 Sur 0 -- -- 88
2021-02-07 12:00:00 8.4 0 Calma 8 Sudeste 0 -- -- 91
2021-02-07 11:00:00 7 3 Sur 6 Sur 0 -- -- 96
2021-02-07 10:00:00 6.4 0 Calma 4 Sur 0 -- -- 99
2021-02-07 09:00:00 6.8 0 Calma 4 Sudoeste 0 -- -- 99
2021-02-07 08:00:00 6.3 0 Calma 4 Norte 0 -- -- 99
2021-02-07 07:00:00 6.8 0 Calma 3 Oeste 0 -- -- 99
2021-02-07 06:00:00 6.6 0 Calma 5 Noroeste 0 -- -- 99
2021-02-07 05:00:00 5.7 0 Calma 5 Norte 0 -- -- 99
2021-02-07 04:00:00 5.8 0 Calma 6 Noroeste 0.2 -- -- 98
2021-02-07 03:00:00 6.9 2 Noroeste 6 Noroeste 0 -- -- 99
2021-02-07 02:00:00 7.3 0 Calma 4 Sudoeste 0 -- -- 99
2021-02-07 01:00:00 7.8 2 Noroeste 5 Norte 0 -- -- 99
2021-02-07 00:00:00 8.5 0 Calma 4 Noroeste 0 -- -- 99
2021-02-06 23:00:00 8.3 0 Calma 4 Noroeste 0 -- -- 98
2021-02-06 22:00:00 8.1 0 Calma 5 Noroeste 0 -- -- 98
2021-02-06 21:00:00 8.7 3 Norte 5 Norte 0 -- -- 97
2021-02-06 20:00:00 9.8 0 Calma 3 Norte 0 -- -- 97
2021-02-06 19:00:00 10.1 0 Calma 2 Noroeste 0.6 -- -- 96
2021-02-06 18:00:00 10.9 0 Calma 3 Sudoeste 0.2 -- -- 93
2021-02-06 17:00:00 11.1 0 Calma 6 Sudoeste 0 -- -- 91
2021-02-06 16:00:00 10.9 3 Sudoeste 8 Sur 0 -- -- 90
2021-02-06 15:00:00 10.7 2 Norte 8 Norte 0.8 -- -- 92
2021-02-06 14:00:00 10.3 0 Calma 13 Sudoeste 1.4 -- -- 95
2021-02-06 13:00:00 10.9 4 Sudoeste 11 Sudoeste 0 -- -- 89
2021-02-06 12:00:00 10.8 6 Sur 12 Sudeste 0 -- -- 92
2021-02-06 11:00:00 10.4 2 Sudeste 6 Nordeste 0.4 -- -- 97
2021-02-06 10:00:00 8.8 0 Calma 6 Sur 0.4 -- -- 98
2021-02-06 09:00:00 7.7 3 Noroeste 9 Norte 1 -- -- 98
2021-02-06 08:00:00 7.7 3 Norte 7 Norte 2.8 -- -- 98
2021-02-06 07:00:00 8.3 0 Calma 9 Este 3.2 -- -- 99
2021-02-06 06:00:00 8.5 3 Este 13 Este 2.2 -- -- 99
2021-02-06 05:00:00 8.2 2 Este 6 Este 0.4 -- -- 98
2021-02-06 04:00:00 7.6 3 Noroeste 9 Norte 1.6 -- -- 97
2021-02-06 03:00:00 7.6 3 Noroeste 10 Noroeste 3 -- -- 96
2021-02-06 02:00:00 8.2 2 Noroeste 8 Norte 4.6 -- -- 96
2021-02-06 01:00:00 8.6 4 Norte 12 Norte 3.4 -- -- 97
2021-02-06 00:00:00 8.8 0 Calma 7 Noroeste 2.8 -- -- 97
2021-02-05 23:00:00 8.9 2 Noroeste 8 Noroeste 1 -- -- 96
2021-02-05 22:00:00 9.5 3 Sudoeste 11 Noroeste 0.2 -- -- 95
2021-02-05 21:00:00 9.5 2 Sudoeste 27 Sudoeste 2.6 -- -- 96
2021-02-05 20:00:00 10 8 Sudoeste 22 Sudoeste 0.4 -- -- 96
2021-02-05 19:00:00 10.6 3 Norte 8 Noroeste 0 -- -- 94
2021-02-05 18:00:00 11.2 5 Sudoeste 9 Sudoeste 0 -- -- 90
2021-02-05 17:00:00 12.1 2 Sudoeste 12 Sudoeste 0 -- -- 86
2021-02-05 16:00:00 12.7 0 Calma 12 Sur 0 -- -- 87
2021-02-05 15:00:00 13.7 3 Sur 9 Sudeste 0 -- -- 85
2021-02-05 14:00:00 13.8 3 Sudeste 9 Este 0 -- -- 87
2021-02-05 13:00:00 12.7 3 Sudeste 14 Sudoeste 0 -- -- 92
2021-02-05 12:00:00 12.4 5 Sudoeste 15 Sudoeste 0 -- -- 91
2021-02-05 11:00:00 11.8 3 Nordeste 12 Nordeste 0 -- -- 94
2021-02-05 10:00:00 10.4 3 Nordeste 11 Este 0.2 -- -- 97
2021-02-05 09:00:00 10.1 3 Nordeste 21 Sudoeste 0 -- -- 95
2021-02-05 08:00:00 9.9 4 Oeste 10 Sudoeste 0 -- -- 96
2021-02-05 07:00:00 10.6 3 Oeste 15 Nordeste 0 -- -- 93
2021-02-05 06:00:00 10.4 3 Sudoeste 10 Sudoeste 1 -- -- 95
2021-02-05 05:00:00 10.6 4 Oeste 11 Noroeste 0 -- -- 94
2021-02-05 04:00:00 10.5 6 Oeste 13 Nordeste 1 -- -- 94
2021-02-05 03:00:00 10.8 5 Noroeste 11 Noroeste 0 -- -- 90
2021-02-05 02:00:00 10.5 4 Sudoeste 13 Noroeste 0 -- -- 92
2021-02-05 01:00:00 11 3 Sudeste 13 Norte 0 -- -- 89
2021-02-05 00:00:00 10.7 4 Norte 8 Noroeste 0 -- -- 93
2021-02-04 23:00:00 10.9 2 Norte 7 Norte 0 -- -- 91
2021-02-04 22:00:00 10.6 3 Noroeste 8 Nordeste 0 -- -- 94
2021-02-04 21:00:00 10.1 3 Noroeste 8 Noroeste 0 -- -- 98
2021-02-04 20:00:00 10 4 Norte 8 Nordeste 0.2 -- -- 98
2021-02-04 19:00:00 9.9 3 Norte 8 Noroeste 1.4 -- -- 98
2021-02-04 18:00:00 10 3 Norte 7 Norte 2 -- -- 97
2021-02-04 17:00:00 10.4 2 Norte 8 Norte 0.4 -- -- 96
2021-02-04 16:00:00 11.1 2 Oeste 6 Nordeste 0 -- -- 95
2021-02-04 15:00:00 11.2 2 Nordeste 13 Este 0 -- -- 96
2021-02-04 14:00:00 10.8 3 Sudeste 11 Sudeste 0 -- -- 97
2021-02-04 13:00:00 10.5 2 Sudeste 6 Oeste 0.2 -- -- 98
2021-02-04 12:00:00 10 0 Calma 8 Sudeste 0.6 -- -- 98
2021-02-04 11:00:00 9.8 4 Este 13 Este 0.4 -- -- 98
2021-02-04 10:00:00 9.5 0 Calma 9 Nordeste 0 -- -- 98
2021-02-04 09:00:00 9.2 0 Calma 7 Nordeste 0 -- -- 98
2021-02-04 08:00:00 9.3 0 Calma -- -- 0.2 -- -- 99
2021-02-04 07:00:00 9.3 0 Calma -- -- 0 -- -- 98
2021-02-04 06:00:00 9.2 0 Calma -- -- 0 -- -- 98
2021-02-04 05:00:00 9.5 0 Calma -- -- 0 -- -- 98
2021-02-04 04:00:00 9.8 0 Calma -- -- 0.2 -- -- 98
2021-02-04 03:00:00 9.8 0 Calma -- -- 0.2 -- -- 98
2021-02-04 02:00:00 9.9 0 Calma -- -- 0.4 -- -- 98
2021-02-04 01:00:00 10 0 Calma 4 Nordeste 0.2 -- -- 98
2021-02-04 00:00:00 10 0 Calma 5 Sur 0 -- -- 98